CheckWX is a tool to help pilots better visualize weather data.  It is not intended as a substitute for an official pre-flight weather briefing.

05:13:07 UTC

CYKF METAR
Waterloo Airport
Kitchener, Canada
Current

13 mins ago

CYKF 080500Z AUTO 15004KT 9SM BKN080 M08/M09 A3029 RMK SLP277
Observed
Dec-8 @ 05:00 UTC
Wind
  • 150° at 4 KTS
Visibility
9 SM
Flight Rules
VFR
Cloud Levels
  • Broken at 8,000' AGL
Temperature
-8°C / 18°F
Dewpoint
-9°C / 16°F
Humidity
93%
Altimeter
30.29" Hg
Pressure
1025.72 hPa
Previous

1 hour ago

CYKF 080400Z AUTO 12004KT 9SM CLR M07/M09 A3032 RMK SLP286
Observed
Dec-8 @ 04:00 UTC
Wind
  • 120° at 4 KTS
Visibility
9 SM
Flight Rules
VFR
Cloud Levels
  • Clear skies
Temperature
-7°C / 19°F
Dewpoint
-9°C / 16°F
Humidity
86%
Altimeter
30.32" Hg
Pressure
1026.72 hPa
Previous

2 hours ago

CYKF 080300Z AUTO 13003KT 9SM CLR M09/M10 A3032 RMK SLP289
Observed
Dec-8 @ 03:00 UTC
Wind
  • 130° at 3 KTS
Visibility
9 SM
Flight Rules
VFR
Cloud Levels
  • Clear skies
Temperature
-9°C / 16°F
Dewpoint
-10°C / 14°F
Humidity
93%
Altimeter
30.32" Hg
Pressure
1026.72 hPa